sensor_id;sensor_type;location;lat;lon;timestamp;P1;durP1;ratioP1;P2;durP2;ratioP2
81544;SDS011;70990;50.618;7.346;2023-08-20T00:00:06;9.55;;;5.32;;
81544;SDS011;70990;50.618;7.346;2023-08-20T00:02:37;14.52;;;6.18;;
81544;SDS011;70990;50.618;7.346;2023-08-20T00:05:07;10.05;;;5.32;;
81544;SDS011;70990;50.618;7.346;2023-08-20T00:07:34;10.07;;;6.22;;
81544;SDS011;70990;50.618;7.346;2023-08-20T00:10:02;11.93;;;6.72;;
81544;SDS011;70990;50.618;7.346;2023-08-20T00:12:29;11.88;;;5.93;;
81544;SDS011;70990;50.618;7.346;2023-08-20T00:15:00;11.23;;;6.20;;
81544;SDS011;70990;50.618;7.346;2023-08-20T00:17:29;12.10;;;5.90;;
81544;SDS011;70990;50.618;7.346;2023-08-20T00:19:55;12.02;;;5.78;;
81544;SDS011;70990;50.618;7.346;2023-08-20T00:22:23;8.85;;;5.05;;
81544;SDS011;70990;50.618;7.346;2023-08-20T00:24:50;9.82;;;5.75;;
81544;SDS011;70990;50.618;7.346;2023-08-20T00:27:18;9.10;;;5.32;;
81544;SDS011;70990;50.618;7.346;2023-08-20T00:29:45;11.45;;;5.75;;
81544;SDS011;70990;50.618;7.346;2023-08-20T00:32:11;10.27;;;5.78;;
81544;SDS011;70990;50.618;7.346;2023-08-20T00:34:38;9.77;;;5.35;;
81544;SDS011;70990;50.618;7.346;2023-08-20T00:37:04;11.20;;;5.53;;
81544;SDS011;70990;50.618;7.346;2023-08-20T00:39:31;9.45;;;5.60;;
81544;SDS011;70990;50.618;7.346;2023-08-20T00:41:58;9.90;;;5.55;;
81544;SDS011;70990;50.618;7.346;2023-08-20T00:44:24;13.18;;;6.15;;
81544;SDS011;70990;50.618;7.346;2023-08-20T00:46:51;11.82;;;5.85;;
81544;SDS011;70990;50.618;7.346;2023-08-20T00:49:17;10.50;;;5.93;;
81544;SDS011;70990;50.618;7.346;2023-08-20T00:51:45;10.82;;;5.63;;
81544;SDS011;70990;50.618;7.346;2023-08-20T00:54:12;10.60;;;5.75;;
81544;SDS011;70990;50.618;7.346;2023-08-20T00:56:38;11.85;;;6.63;;
81544;SDS011;70990;50.618;7.346;2023-08-20T00:59:05;11.02;;;5.05;;
81544;SDS011;70990;50.618;7.346;2023-08-20T01:01:32;11.80;;;5.65;;
81544;SDS011;70990;50.618;7.346;2023-08-20T01:03:58;11.20;;;6.07;;
81544;SDS011;70990;50.618;7.346;2023-08-20T01:06:33;11.80;;;5.47;;
81544;SDS011;70990;50.618;7.346;2023-08-20T01:09:05;13.10;;;5.43;;
81544;SDS011;70990;50.618;7.346;2023-08-20T01:14:16;8.85;;;5.43;;
81544;SDS011;70990;50.618;7.346;2023-08-20T01:16:44;10.70;;;4.93;;
81544;SDS011;70990;50.618;7.346;2023-08-20T01:19:12;9.98;;;5.25;;
81544;SDS011;70990;50.618;7.346;2023-08-20T01:22:05;11.38;;;5.43;;
81544;SDS011;70990;50.618;7.346;2023-08-20T01:27:38;10.20;;;5.32;;
81544;SDS011;70990;50.618;7.346;2023-08-20T01:30:09;11.77;;;5.55;;
81544;SDS011;70990;50.618;7.346;2023-08-20T01:32:37;9.18;;;5.43;;
81544;SDS011;70990;50.618;7.346;2023-08-20T01:35:05;9.07;;;5.03;;
81544;SDS011;70990;50.618;7.346;2023-08-20T01:37:32;9.68;;;5.18;;
81544;SDS011;70990;50.618;7.346;2023-08-20T01:39:59;8.77;;;5.22;;
81544;SDS011;70990;50.618;7.346;2023-08-20T01:42:25;11.35;;;5.07;;
81544;SDS011;70990;50.618;7.346;2023-08-20T01:44:52;10.70;;;5.80;;
81544;SDS011;70990;50.618;7.346;2023-08-20T01:47:18;11.70;;;5.93;;
81544;SDS011;70990;50.618;7.346;2023-08-20T01:49:45;12.88;;;7.53;;
81544;SDS011;70990;50.618;7.346;2023-08-20T01:52:11;15.52;;;8.63;;
81544;SDS011;70990;50.618;7.346;2023-08-20T01:54:38;13.52;;;7.95;;
81544;SDS011;70990;50.618;7.346;2023-08-20T01:57:04;11.27;;;6.20;;
81544;SDS011;70990;50.618;7.346;2023-08-20T01:59:31;11.80;;;6.82;;
81544;SDS011;70990;50.618;7.346;2023-08-20T02:01:58;13.13;;;5.97;;
81544;SDS011;70990;50.618;7.346;2023-08-20T02:04:25;11.82;;;6.85;;
81544;SDS011;70990;50.618;7.346;2023-08-20T02:06:51;11.85;;;6.25;;
81544;SDS011;70990;50.618;7.346;2023-08-20T02:09:18;14.18;;;6.75;;
81544;SDS011;70990;50.618;7.346;2023-08-20T02:11:44;11.05;;;6.30;;
81544;SDS011;70990;50.618;7.346;2023-08-20T02:14:11;12.32;;;7.22;;
81544;SDS011;70990;50.618;7.346;2023-08-20T02:16:37;25.48;;;8.75;;
81544;SDS011;70990;50.618;7.346;2023-08-20T02:19:04;49.38;;;10.10;;
81544;SDS011;70990;50.618;7.346;2023-08-20T02:21:31;18.05;;;8.45;;
81544;SDS011;70990;50.618;7.346;2023-08-20T02:23:58;38.13;;;9.50;;
81544;SDS011;70990;50.618;7.346;2023-08-20T02:26:27;19.38;;;9.90;;
81544;SDS011;70990;50.618;7.346;2023-08-20T02:28:54;20.20;;;9.98;;
81544;SDS011;70990;50.618;7.346;2023-08-20T02:31:20;35.03;;;9.15;;
81544;SDS011;70990;50.618;7.346;2023-08-20T02:33:47;21.17;;;8.85;;
81544;SDS011;70990;50.618;7.346;2023-08-20T02:36:15;25.83;;;9.20;;
81544;SDS011;70990;50.618;7.346;2023-08-20T02:38:42;13.63;;;7.40;;
81544;SDS011;70990;50.618;7.346;2023-08-20T02:41:08;14.82;;;7.68;;
81544;SDS011;70990;50.618;7.346;2023-08-20T02:43:35;10.57;;;7.00;;
81544;SDS011;70990;50.618;7.346;2023-08-20T02:46:01;13.50;;;6.20;;
81544;SDS011;70990;50.618;7.346;2023-08-20T02:48:28;11.60;;;6.90;;
81544;SDS011;70990;50.618;7.346;2023-08-20T02:50:55;13.90;;;6.72;;
81544;SDS011;70990;50.618;7.346;2023-08-20T02:53:22;12.57;;;7.32;;
81544;SDS011;70990;50.618;7.346;2023-08-20T02:55:49;12.88;;;6.25;;
81544;SDS011;70990;50.618;7.346;2023-08-20T02:58:15;11.73;;;6.40;;
81544;SDS011;70990;50.618;7.346;2023-08-20T03:00:42;10.77;;;6.25;;
81544;SDS011;70990;50.618;7.346;2023-08-20T03:03:08;10.82;;;6.05;;
81544;SDS011;70990;50.618;7.346;2023-08-20T03:05:37;11.25;;;6.35;;
81544;SDS011;70990;50.618;7.346;2023-08-20T03:08:04;10.02;;;5.72;;
81544;SDS011;70990;50.618;7.346;2023-08-20T03:10:31;9.07;;;5.63;;
81544;SDS011;70990;50.618;7.346;2023-08-20T03:12:58;10.27;;;5.80;;
81544;SDS011;70990;50.618;7.346;2023-08-20T03:15:25;9.98;;;5.65;;
81544;SDS011;70990;50.618;7.346;2023-08-20T03:17:52;10.63;;;5.88;;
81544;SDS011;70990;50.618;7.346;2023-08-20T03:20:19;10.48;;;5.50;;
81544;SDS011;70990;50.618;7.346;2023-08-20T03:22:45;11.43;;;5.75;;
81544;SDS011;70990;50.618;7.346;2023-08-20T03:25:12;11.40;;;5.22;;
81544;SDS011;70990;50.618;7.346;2023-08-20T03:27:38;9.35;;;5.50;;
81544;SDS011;70990;50.618;7.346;2023-08-20T03:30:05;10.80;;;5.57;;
81544;SDS011;70990;50.618;7.346;2023-08-20T03:32:32;10.30;;;5.90;;
81544;SDS011;70990;50.618;7.346;2023-08-20T03:34:59;11.25;;;5.90;;
81544;SDS011;70990;50.618;7.346;2023-08-20T03:37:26;10.10;;;5.65;;
81544;SDS011;70990;50.618;7.346;2023-08-20T03:39:52;9.93;;;5.38;;
81544;SDS011;70990;50.618;7.346;2023-08-20T03:42:19;10.93;;;5.95;;
81544;SDS011;70990;50.618;7.346;2023-08-20T03:44:47;9.70;;;5.18;;
81544;SDS011;70990;50.618;7.346;2023-08-20T03:47:15;10.15;;;5.80;;
81544;SDS011;70990;50.618;7.346;2023-08-20T03:49:42;12.75;;;6.15;;
81544;SDS011;70990;50.618;7.346;2023-08-20T03:52:08;10.30;;;6.43;;
81544;SDS011;70990;50.618;7.346;2023-08-20T03:54:35;10.90;;;6.18;;
81544;SDS011;70990;50.618;7.346;2023-08-20T03:57:02;9.75;;;5.35;;
81544;SDS011;70990;50.618;7.346;2023-08-20T03:59:29;9.38;;;5.13;;
81544;SDS011;70990;50.618;7.346;2023-08-20T04:01:56;10.52;;;6.25;;
81544;SDS011;70990;50.618;7.346;2023-08-20T04:04:24;10.02;;;5.70;;
81544;SDS011;70990;50.618;7.346;2023-08-20T04:06:51;11.05;;;5.53;;
81544;SDS011;70990;50.618;7.346;2023-08-20T04:09:17;12.48;;;6.00;;
81544;SDS011;70990;50.618;7.346;2023-08-20T04:11:44;12.98;;;7.53;;
81544;SDS011;70990;50.618;7.346;2023-08-20T04:14:10;12.43;;;7.40;;
81544;SDS011;70990;50.618;7.346;2023-08-20T04:16:37;14.85;;;7.28;;
81544;SDS011;70990;50.618;7.346;2023-08-20T04:19:03;15.43;;;8.63;;
81544;SDS011;70990;50.618;7.346;2023-08-20T04:21:31;16.30;;;9.15;;
81544;SDS011;70990;50.618;7.346;2023-08-20T04:23:58;16.50;;;8.43;;
81544;SDS011;70990;50.618;7.346;2023-08-20T04:26:25;15.07;;;8.95;;
81544;SDS011;70990;50.618;7.346;2023-08-20T04:28:51;16.08;;;8.98;;
81544;SDS011;70990;50.618;7.346;2023-08-20T04:31:18;18.40;;;9.88;;
81544;SDS011;70990;50.618;7.346;2023-08-20T04:33:51;16.13;;;10.02;;
81544;SDS011;70990;50.618;7.346;2023-08-20T04:36:22;19.77;;;11.35;;
81544;SDS011;70990;50.618;7.346;2023-08-20T04:38:49;27.35;;;12.15;;
81544;SDS011;70990;50.618;7.346;2023-08-20T04:41:15;25.08;;;13.45;;
81544;SDS011;70990;50.618;7.346;2023-08-20T04:43:42;23.63;;;12.45;;
81544;SDS011;70990;50.618;7.346;2023-08-20T04:46:09;25.05;;;13.00;;
81544;SDS011;70990;50.618;7.346;2023-08-20T04:48:36;25.60;;;13.27;;
81544;SDS011;70990;50.618;7.346;2023-08-20T04:51:03;25.90;;;14.05;;
81544;SDS011;70990;50.618;7.346;2023-08-20T04:53:29;28.73;;;14.02;;
81544;SDS011;70990;50.618;7.346;2023-08-20T04:55:56;26.27;;;14.77;;
81544;SDS011;70990;50.618;7.346;2023-08-20T04:58:24;29.80;;;15.30;;
81544;SDS011;70990;50.618;7.346;2023-08-20T05:00:50;27.20;;;13.55;;
81544;SDS011;70990;50.618;7.346;2023-08-20T05:03:18;26.25;;;13.35;;
81544;SDS011;70990;50.618;7.346;2023-08-20T05:05:48;23.63;;;13.32;;
81544;SDS011;70990;50.618;7.346;2023-08-20T05:08:15;21.63;;;13.18;;
81544;SDS011;70990;50.618;7.346;2023-08-20T05:10:42;25.85;;;13.38;;
81544;SDS011;70990;50.618;7.346;2023-08-20T05:13:10;22.67;;;12.10;;
81544;SDS011;70990;50.618;7.346;2023-08-20T05:15:37;21.58;;;11.93;;
81544;SDS011;70990;50.618;7.346;2023-08-20T05:18:03;22.75;;;13.73;;
81544;SDS011;70990;50.618;7.346;2023-08-20T05:20:31;21.88;;;12.30;;
81544;SDS011;70990;50.618;7.346;2023-08-20T05:22:57;25.77;;;12.13;;
81544;SDS011;70990;50.618;7.346;2023-08-20T05:25:24;27.10;;;13.10;;
81544;SDS011;70990;50.618;7.346;2023-08-20T05:27:51;24.73;;;13.43;;
81544;SDS011;70990;50.618;7.346;2023-08-20T05:30:17;24.00;;;13.73;;
81544;SDS011;70990;50.618;7.346;2023-08-20T05:32:44;23.75;;;13.05;;
81544;SDS011;70990;50.618;7.346;2023-08-20T05:35:10;25.17;;;12.65;;
81544;SDS011;70990;50.618;7.346;2023-08-20T05:40:07;26.95;;;12.48;;
81544;SDS011;70990;50.618;7.346;2023-08-20T05:42:35;23.13;;;12.73;;
81544;SDS011;70990;50.618;7.346;2023-08-20T05:45:05;25.95;;;13.65;;
81544;SDS011;70990;50.618;7.346;2023-08-20T05:47:32;26.95;;;12.90;;
81544;SDS011;70990;50.618;7.346;2023-08-20T05:49:59;22.50;;;12.70;;
81544;SDS011;70990;50.618;7.346;2023-08-20T05:52:26;24.95;;;12.93;;
81544;SDS011;70990;50.618;7.346;2023-08-20T05:54:53;24.42;;;12.93;;
81544;SDS011;70990;50.618;7.346;2023-08-20T05:57:20;21.73;;;11.73;;
81544;SDS011;70990;50.618;7.346;2023-08-20T05:59:47;19.42;;;11.25;;
81544;SDS011;70990;50.618;7.346;2023-08-20T06:02:17;20.92;;;11.50;;
81544;SDS011;70990;50.618;7.346;2023-08-20T06:04:44;21.77;;;12.25;;
81544;SDS011;70990;50.618;7.346;2023-08-20T06:07:11;24.23;;;12.70;;
81544;SDS011;70990;50.618;7.346;2023-08-20T06:09:38;24.83;;;13.60;;
81544;SDS011;70990;50.618;7.346;2023-08-20T06:12:05;22.48;;;12.10;;
81544;SDS011;70990;50.618;7.346;2023-08-20T06:14:32;20.80;;;12.07;;
81544;SDS011;70990;50.618;7.346;2023-08-20T06:16:58;20.65;;;11.85;;
81544;SDS011;70990;50.618;7.346;2023-08-20T06:19:25;22.23;;;12.18;;
81544;SDS011;70990;50.618;7.346;2023-08-20T06:21:52;22.40;;;12.23;;
81544;SDS011;70990;50.618;7.346;2023-08-20T06:24:18;23.70;;;13.23;;
81544;SDS011;70990;50.618;7.346;2023-08-20T06:26:45;20.40;;;12.32;;
81544;SDS011;70990;50.618;7.346;2023-08-20T06:29:12;20.05;;;11.07;;
81544;SDS011;70990;50.618;7.346;2023-08-20T06:31:38;20.67;;;12.13;;
81544;SDS011;70990;50.618;7.346;2023-08-20T06:34:05;21.65;;;11.18;;
81544;SDS011;70990;50.618;7.346;2023-08-20T06:36:32;17.05;;;10.43;;
81544;SDS011;70990;50.618;7.346;2023-08-20T06:38:58;18.23;;;10.57;;
81544;SDS011;70990;50.618;7.346;2023-08-20T06:41:25;19.05;;;10.25;;
81544;SDS011;70990;50.618;7.346;2023-08-20T06:43:51;20.83;;;10.27;;
81544;SDS011;70990;50.618;7.346;2023-08-20T06:46:18;16.08;;;9.77;;
81544;SDS011;70990;50.618;7.346;2023-08-20T06:48:45;14.90;;;8.45;;
81544;SDS011;70990;50.618;7.346;2023-08-20T06:51:12;17.80;;;9.18;;
81544;SDS011;70990;50.618;7.346;2023-08-20T06:53:41;17.75;;;10.18;;
81544;SDS011;70990;50.618;7.346;2023-08-20T06:56:08;18.05;;;9.15;;
81544;SDS011;70990;50.618;7.346;2023-08-20T06:58:35;14.30;;;9.07;;
81544;SDS011;70990;50.618;7.346;2023-08-20T07:01:02;14.73;;;7.88;;
81544;SDS011;70990;50.618;7.346;2023-08-20T07:03:29;13.60;;;8.10;;
81544;SDS011;70990;50.618;7.346;2023-08-20T07:05:55;17.08;;;8.43;;
81544;SDS011;70990;50.618;7.346;2023-08-20T07:08:22;14.60;;;8.98;;
81544;SDS011;70990;50.618;7.346;2023-08-20T07:10:48;15.10;;;8.25;;
81544;SDS011;70990;50.618;7.346;2023-08-20T07:13:15;14.30;;;8.02;;
81544;SDS011;70990;50.618;7.346;2023-08-20T07:15:41;14.18;;;7.32;;
81544;SDS011;70990;50.618;7.346;2023-08-20T07:18:08;11.98;;;7.13;;
81544;SDS011;70990;50.618;7.346;2023-08-20T07:20:35;12.88;;;7.18;;
81544;SDS011;70990;50.618;7.346;2023-08-20T07:23:02;15.10;;;6.85;;
81544;SDS011;70990;50.618;7.346;2023-08-20T07:25:30;13.32;;;7.32;;
81544;SDS011;70990;50.618;7.346;2023-08-20T07:27:57;13.38;;;6.47;;
81544;SDS011;70990;50.618;7.346;2023-08-20T07:30:23;14.65;;;7.97;;
81544;SDS011;70990;50.618;7.346;2023-08-20T07:32:50;10.88;;;6.20;;
81544;SDS011;70990;50.618;7.346;2023-08-20T07:35:17;10.77;;;6.30;;
81544;SDS011;70990;50.618;7.346;2023-08-20T07:37:43;12.48;;;7.22;;
81544;SDS011;70990;50.618;7.346;2023-08-20T07:40:10;12.52;;;7.00;;
81544;SDS011;70990;50.618;7.346;2023-08-20T07:42:42;15.20;;;6.30;;
81544;SDS011;70990;50.618;7.346;2023-08-20T07:45:09;10.13;;;6.40;;
81544;SDS011;70990;50.618;7.346;2023-08-20T07:47:36;11.90;;;6.80;;
81544;SDS011;70990;50.618;7.346;2023-08-20T07:50:04;13.35;;;6.75;;
81544;SDS011;70990;50.618;7.346;2023-08-20T07:52:31;11.23;;;6.07;;
81544;SDS011;70990;50.618;7.346;2023-08-20T07:54:59;10.15;;;6.07;;
81544;SDS011;70990;50.618;7.346;2023-08-20T07:57:25;8.55;;;5.32;;
81544;SDS011;70990;50.618;7.346;2023-08-20T07:59:52;9.55;;;5.50;;
81544;SDS011;70990;50.618;7.346;2023-08-20T08:02:19;11.27;;;5.82;;
81544;SDS011;70990;50.618;7.346;2023-08-20T08:04:45;10.90;;;5.05;;
81544;SDS011;70990;50.618;7.346;2023-08-20T08:07:11;10.35;;;5.07;;
81544;SDS011;70990;50.618;7.346;2023-08-20T08:09:38;10.73;;;6.22;;
81544;SDS011;70990;50.618;7.346;2023-08-20T08:12:05;9.68;;;5.70;;
81544;SDS011;70990;50.618;7.346;2023-08-20T08:14:31;10.85;;;6.57;;
81544;SDS011;70990;50.618;7.346;2023-08-20T08:16:58;9.15;;;5.05;;
81544;SDS011;70990;50.618;7.346;2023-08-20T08:19:24;7.95;;;5.07;;
81544;SDS011;70990;50.618;7.346;2023-08-20T08:21:51;10.20;;;4.88;;
81544;SDS011;70990;50.618;7.346;2023-08-20T08:24:18;11.27;;;5.20;;
81544;SDS011;70990;50.618;7.346;2023-08-20T08:26:44;13.00;;;5.50;;
81544;SDS011;70990;50.618;7.346;2023-08-20T08:29:11;9.30;;;4.93;;
81544;SDS011;70990;50.618;7.346;2023-08-20T08:31:37;11.65;;;5.40;;
81544;SDS011;70990;50.618;7.346;2023-08-20T08:34:04;9.43;;;5.32;;
81544;SDS011;70990;50.618;7.346;2023-08-20T08:36:31;8.60;;;5.03;;
81544;SDS011;70990;50.618;7.346;2023-08-20T08:38:57;10.43;;;5.60;;
81544;SDS011;70990;50.618;7.346;2023-08-20T08:41:24;8.30;;;4.53;;
81544;SDS011;70990;50.618;7.346;2023-08-20T08:43:53;8.10;;;3.95;;
81544;SDS011;70990;50.618;7.346;2023-08-20T08:46:21;8.70;;;3.85;;
81544;SDS011;70990;50.618;7.346;2023-08-20T08:48:49;7.70;;;4.32;;
81544;SDS011;70990;50.618;7.346;2023-08-20T08:51:17;8.98;;;4.45;;
81544;SDS011;70990;50.618;7.346;2023-08-20T08:53:44;7.90;;;4.03;;
81544;SDS011;70990;50.618;7.346;2023-08-20T08:56:12;9.32;;;4.55;;
81544;SDS011;70990;50.618;7.346;2023-08-20T08:58:39;6.97;;;4.10;;
81544;SDS011;70990;50.618;7.346;2023-08-20T09:01:05;7.80;;;4.57;;
81544;SDS011;70990;50.618;7.346;2023-08-20T09:03:32;9.35;;;5.20;;
81544;SDS011;70990;50.618;7.346;2023-08-20T09:06:00;8.65;;;4.22;;
81544;SDS011;70990;50.618;7.346;2023-08-20T09:08:29;8.95;;;4.30;;
81544;SDS011;70990;50.618;7.346;2023-08-20T09:10:57;9.18;;;5.10;;
81544;SDS011;70990;50.618;7.346;2023-08-20T09:13:25;8.43;;;4.50;;
81544;SDS011;70990;50.618;7.346;2023-08-20T09:15:58;8.40;;;4.72;;
81544;SDS011;70990;50.618;7.346;2023-08-20T09:18:25;9.52;;;5.05;;
81544;SDS011;70990;50.618;7.346;2023-08-20T09:20:52;8.23;;;4.68;;
81544;SDS011;70990;50.618;7.346;2023-08-20T09:23:18;11.93;;;5.15;;
81544;SDS011;70990;50.618;7.346;2023-08-20T09:25:45;10.50;;;5.40;;
81544;SDS011;70990;50.618;7.346;2023-08-20T09:28:11;7.72;;;4.60;;
81544;SDS011;70990;50.618;7.346;2023-08-20T09:30:38;10.07;;;4.88;;
81544;SDS011;70990;50.618;7.346;2023-08-20T09:33:09;10.60;;;4.50;;
81544;SDS011;70990;50.618;7.346;2023-08-20T09:35:38;8.05;;;4.00;;
81544;SDS011;70990;50.618;7.346;2023-08-20T09:38:04;6.97;;;4.35;;
81544;SDS011;70990;50.618;7.346;2023-08-20T09:40:31;8.48;;;4.57;;
81544;SDS011;70990;50.618;7.346;2023-08-20T09:42:58;8.10;;;4.13;;
81544;SDS011;70990;50.618;7.346;2023-08-20T09:45:28;9.43;;;4.68;;
81544;SDS011;70990;50.618;7.346;2023-08-20T09:47:55;8.50;;;3.97;;
81544;SDS011;70990;50.618;7.346;2023-08-20T09:50:24;7.10;;;4.40;;
81544;SDS011;70990;50.618;7.346;2023-08-20T09:52:58;7.40;;;4.50;;
81544;SDS011;70990;50.618;7.346;2023-08-20T09:55:33;6.95;;;3.75;;
81544;SDS011;70990;50.618;7.346;2023-08-20T09:58:02;7.88;;;4.55;;
81544;SDS011;70990;50.618;7.346;2023-08-20T10:00:29;10.90;;;4.43;;
81544;SDS011;70990;50.618;7.346;2023-08-20T10:02:56;10.00;;;4.43;;
81544;SDS011;70990;50.618;7.346;2023-08-20T10:05:23;7.65;;;4.45;;
81544;SDS011;70990;50.618;7.346;2023-08-20T10:07:51;14.93;;;5.72;;
81544;SDS011;70990;50.618;7.346;2023-08-20T10:10:22;8.38;;;4.53;;
81544;SDS011;70990;50.618;7.346;2023-08-20T10:12:49;20.65;;;5.65;;
81544;SDS011;70990;50.618;7.346;2023-08-20T10:15:16;13.70;;;4.68;;
81544;SDS011;70990;50.618;7.346;2023-08-20T10:17:44;14.40;;;5.18;;
81544;SDS011;70990;50.618;7.346;2023-08-20T10:20:13;12.00;;;4.82;;
81544;SDS011;70990;50.618;7.346;2023-08-20T10:22:41;10.85;;;4.35;;
81544;SDS011;70990;50.618;7.346;2023-08-20T10:25:31;11.13;;;4.30;;
81544;SDS011;70990;50.618;7.346;2023-08-20T10:28:13;7.55;;;4.05;;
81544;SDS011;70990;50.618;7.346;2023-08-20T10:33:33;11.02;;;4.90;;
81544;SDS011;70990;50.618;7.346;2023-08-20T10:36:08;6.65;;;3.90;;
81544;SDS011;70990;50.618;7.346;2023-08-20T10:38:36;9.07;;;4.90;;
81544;SDS011;70990;50.618;7.346;2023-08-20T10:41:07;30.02;;;7.13;;
81544;SDS011;70990;50.618;7.346;2023-08-20T10:43:35;11.40;;;4.43;;
81544;SDS011;70990;50.618;7.346;2023-08-20T10:46:17;7.13;;;3.80;;
81544;SDS011;70990;50.618;7.346;2023-08-20T10:48:55;19.50;;;5.07;;
81544;SDS011;70990;50.618;7.346;2023-08-20T10:51:27;19.73;;;5.70;;
81544;SDS011;70990;50.618;7.346;2023-08-20T10:56:41;20.10;;;5.78;;
81544;SDS011;70990;50.618;7.346;2023-08-20T10:59:09;31.55;;;7.18;;
81544;SDS011;70990;50.618;7.346;2023-08-20T11:01:40;22.63;;;5.25;;
81544;SDS011;70990;50.618;7.346;2023-08-20T11:04:10;18.27;;;5.45;;
81544;SDS011;70990;50.618;7.346;2023-08-20T11:06:37;25.95;;;6.40;;
81544;SDS011;70990;50.618;7.346;2023-08-20T11:09:05;32.00;;;7.15;;
81544;SDS011;70990;50.618;7.346;2023-08-20T11:11:31;18.02;;;4.72;;
81544;SDS011;70990;50.618;7.346;2023-08-20T11:14:05;15.55;;;4.78;;
81544;SDS011;70990;50.618;7.346;2023-08-20T11:16:34;7.38;;;3.83;;
81544;SDS011;70990;50.618;7.346;2023-08-20T11:19:01;10.80;;;4.63;;
81544;SDS011;70990;50.618;7.346;2023-08-20T11:21:28;7.78;;;3.88;;
81544;SDS011;70990;50.618;7.346;2023-08-20T11:23:54;15.68;;;5.07;;
81544;SDS011;70990;50.618;7.346;2023-08-20T11:26:21;13.90;;;4.90;;
81544;SDS011;70990;50.618;7.346;2023-08-20T11:28:47;17.48;;;5.32;;
81544;SDS011;70990;50.618;7.346;2023-08-20T11:31:14;11.15;;;3.90;;
81544;SDS011;70990;50.618;7.346;2023-08-20T11:33:41;8.00;;;4.07;;
81544;SDS011;70990;50.618;7.346;2023-08-20T11:36:07;8.63;;;4.40;;
81544;SDS011;70990;50.618;7.346;2023-08-20T11:38:34;9.23;;;4.40;;
81544;SDS011;70990;50.618;7.346;2023-08-20T11:41:00;12.43;;;4.85;;
81544;SDS011;70990;50.618;7.346;2023-08-20T11:43:28;10.02;;;4.53;;
81544;SDS011;70990;50.618;7.346;2023-08-20T11:45:55;6.65;;;4.07;;
81544;SDS011;70990;50.618;7.346;2023-08-20T11:48:22;23.88;;;6.43;;
81544;SDS011;70990;50.618;7.346;2023-08-20T11:50:51;17.08;;;6.28;;
81544;SDS011;70990;50.618;7.346;2023-08-20T11:55:48;7.47;;;3.80;;
81544;SDS011;70990;50.618;7.346;2023-08-20T11:58:15;30.15;;;6.18;;
81544;SDS011;70990;50.618;7.346;2023-08-20T12:00:41;6.85;;;4.00;;
81544;SDS011;70990;50.618;7.346;2023-08-20T12:03:08;28.90;;;6.43;;
81544;SDS011;70990;50.618;7.346;2023-08-20T12:05:35;9.95;;;4.95;;
81544;SDS011;70990;50.618;7.346;2023-08-20T12:08:03;7.38;;;4.07;;
81544;SDS011;70990;50.618;7.346;2023-08-20T12:10:31;8.38;;;4.20;;
81544;SDS011;70990;50.618;7.346;2023-08-20T12:12:58;13.00;;;4.60;;
81544;SDS011;70990;50.618;7.346;2023-08-20T12:15:25;25.23;;;7.20;;
81544;SDS011;70990;50.618;7.346;2023-08-20T12:18:01;6.82;;;3.88;;
81544;SDS011;70990;50.618;7.346;2023-08-20T12:20:30;10.30;;;4.40;;
81544;SDS011;70990;50.618;7.346;2023-08-20T12:23:02;15.93;;;4.75;;
81544;SDS011;70990;50.618;7.346;2023-08-20T12:25:30;14.70;;;4.40;;
81544;SDS011;70990;50.618;7.346;2023-08-20T12:27:59;14.05;;;4.25;;
81544;SDS011;70990;50.618;7.346;2023-08-20T12:30:26;12.38;;;4.93;;
81544;SDS011;70990;50.618;7.346;2023-08-20T12:32:53;12.27;;;4.05;;
81544;SDS011;70990;50.618;7.346;2023-08-20T12:35:20;7.45;;;4.38;;
81544;SDS011;70990;50.618;7.346;2023-08-20T12:37:46;10.90;;;4.78;;
81544;SDS011;70990;50.618;7.346;2023-08-20T12:40:13;6.38;;;3.45;;
81544;SDS011;70990;50.618;7.346;2023-08-20T12:42:40;8.00;;;4.47;;
81544;SDS011;70990;50.618;7.346;2023-08-20T12:45:10;17.77;;;5.13;;
81544;SDS011;70990;50.618;7.346;2023-08-20T12:47:36;6.53;;;3.85;;
81544;SDS011;70990;50.618;7.346;2023-08-20T12:50:03;22.67;;;6.45;;
81544;SDS011;70990;50.618;7.346;2023-08-20T12:52:31;25.45;;;7.15;;
81544;SDS011;70990;50.618;7.346;2023-08-20T12:54:59;8.88;;;4.07;;
81544;SDS011;70990;50.618;7.346;2023-08-20T12:57:26;8.30;;;4.10;;
81544;SDS011;70990;50.618;7.346;2023-08-20T12:59:52;25.08;;;7.45;;
81544;SDS011;70990;50.618;7.346;2023-08-20T13:02:19;6.72;;;3.70;;
81544;SDS011;70990;50.618;7.346;2023-08-20T13:04:45;41.35;;;8.75;;
81544;SDS011;70990;50.618;7.346;2023-08-20T13:07:12;10.35;;;4.40;;
81544;SDS011;70990;50.618;7.346;2023-08-20T13:09:39;8.75;;;4.18;;
81544;SDS011;70990;50.618;7.346;2023-08-20T13:12:06;16.77;;;5.65;;
81544;SDS011;70990;50.618;7.346;2023-08-20T13:14:36;21.23;;;5.72;;
81544;SDS011;70990;50.618;7.346;2023-08-20T13:17:03;7.03;;;3.83;;
81544;SDS011;70990;50.618;7.346;2023-08-20T13:19:29;8.98;;;3.50;;
81544;SDS011;70990;50.618;7.346;2023-08-20T13:21:56;27.25;;;5.22;;
81544;SDS011;70990;50.618;7.346;2023-08-20T13:24:22;11.55;;;4.43;;
81544;SDS011;70990;50.618;7.346;2023-08-20T13:26:50;15.82;;;5.32;;
81544;SDS011;70990;50.618;7.346;2023-08-20T13:29:17;37.85;;;7.97;;
81544;SDS011;70990;50.618;7.346;2023-08-20T13:31:43;29.60;;;7.53;;
81544;SDS011;70990;50.618;7.346;2023-08-20T13:34:10;6.40;;;3.90;;
81544;SDS011;70990;50.618;7.346;2023-08-20T13:36:36;11.52;;;4.00;;
81544;SDS011;70990;50.618;7.346;2023-08-20T13:39:04;13.85;;;4.63;;
81544;SDS011;70990;50.618;7.346;2023-08-20T13:41:31;7.70;;;3.67;;
81544;SDS011;70990;50.618;7.346;2023-08-20T13:44:01;16.45;;;5.53;;
81544;SDS011;70990;50.618;7.346;2023-08-20T13:46:27;9.23;;;4.70;;
81544;SDS011;70990;50.618;7.346;2023-08-20T13:48:54;6.47;;;4.25;;
81544;SDS011;70990;50.618;7.346;2023-08-20T13:51:22;21.88;;;5.63;;
81544;SDS011;70990;50.618;7.346;2023-08-20T13:53:49;9.65;;;4.82;;
81544;SDS011;70990;50.618;7.346;2023-08-20T13:56:15;17.50;;;5.10;;
81544;SDS011;70990;50.618;7.346;2023-08-20T13:58:42;6.93;;;3.45;;
81544;SDS011;70990;50.618;7.346;2023-08-20T14:01:08;15.43;;;4.40;;
81544;SDS011;70990;50.618;7.346;2023-08-20T14:03:35;11.80;;;4.85;;
81544;SDS011;70990;50.618;7.346;2023-08-20T14:06:02;12.35;;;4.72;;
81544;SDS011;70990;50.618;7.346;2023-08-20T14:08:28;7.55;;;3.58;;
81544;SDS011;70990;50.618;7.346;2023-08-20T14:10:55;6.57;;;3.53;;
81544;SDS011;70990;50.618;7.346;2023-08-20T14:13:21;10.70;;;5.07;;
81544;SDS011;70990;50.618;7.346;2023-08-20T14:15:48;18.85;;;5.57;;
81544;SDS011;70990;50.618;7.346;2023-08-20T14:18:15;25.85;;;7.43;;
81544;SDS011;70990;50.618;7.346;2023-08-20T14:20:42;6.63;;;4.10;;
81544;SDS011;70990;50.618;7.346;2023-08-20T14:23:09;6.97;;;4.28;;
81544;SDS011;70990;50.618;7.346;2023-08-20T14:25:36;7.65;;;4.10;;
81544;SDS011;70990;50.618;7.346;2023-08-20T14:28:02;7.00;;;4.68;;
81544;SDS011;70990;50.618;7.346;2023-08-20T14:30:29;14.55;;;4.90;;
81544;SDS011;70990;50.618;7.346;2023-08-20T14:32:56;9.77;;;5.10;;
81544;SDS011;70990;50.618;7.346;2023-08-20T14:35:22;7.30;;;4.45;;
81544;SDS011;70990;50.618;7.346;2023-08-20T14:37:51;13.55;;;6.07;;
81544;SDS011;70990;50.618;7.346;2023-08-20T14:40:19;29.27;;;7.72;;
81544;SDS011;70990;50.618;7.346;2023-08-20T14:42:45;8.13;;;4.35;;
81544;SDS011;70990;50.618;7.346;2023-08-20T14:45:12;7.03;;;4.68;;
81544;SDS011;70990;50.618;7.346;2023-08-20T14:47:39;13.02;;;5.85;;
81544;SDS011;70990;50.618;7.346;2023-08-20T14:50:05;10.27;;;5.35;;
81544;SDS011;70990;50.618;7.346;2023-08-20T14:52:33;20.30;;;7.45;;